createdAt,value
2023-05-19T00:00:01.720Z,16.09
2023-05-19T00:02:33.575Z,16.09
2023-05-19T00:05:02.011Z,16.09
2023-05-19T00:07:31.634Z,16.10
2023-05-19T00:10:01.039Z,16.09
2023-05-19T00:12:28.652Z,16.10
2023-05-19T00:14:56.315Z,16.10
2023-05-19T00:17:24.238Z,16.11
2023-05-19T00:19:52.479Z,16.11
2023-05-19T00:22:19.981Z,16.10
2023-05-19T00:24:47.443Z,16.11
2023-05-19T00:27:16.275Z,16.10
2023-05-19T00:29:43.770Z,16.10
2023-05-19T00:32:11.295Z,16.10
2023-05-19T00:34:38.877Z,16.10
2023-05-19T00:37:06.371Z,16.10
2023-05-19T00:39:33.898Z,16.10
2023-05-19T00:42:01.369Z,16.10
2023-05-19T00:44:30.203Z,16.10
2023-05-19T00:46:58.461Z,16.10
2023-05-19T00:49:26.011Z,16.10
2023-05-19T00:51:54.041Z,16.09
2023-05-19T00:54:21.682Z,16.09
2023-05-19T00:56:49.820Z,16.10
2023-05-19T00:59:17.350Z,16.10
2023-05-19T01:01:49.031Z,16.10
2023-05-19T01:04:17.010Z,16.09
2023-05-19T01:06:44.790Z,16.10
2023-05-19T01:09:12.461Z,16.10
2023-05-19T01:11:39.944Z,16.10
2023-05-19T01:14:07.680Z,16.10
2023-05-19T01:16:37.929Z,16.11
2023-05-19T01:19:16.047Z,16.12
2023-05-19T01:22:01.637Z,16.12
2023-05-19T01:24:41.741Z,16.12
2023-05-19T01:27:36.250Z,16.12
2023-05-19T01:30:18.323Z,16.13
2023-05-19T01:32:46.431Z,16.13
2023-05-19T01:35:16.443Z,16.13
2023-05-19T01:37:45.364Z,16.14
2023-05-19T01:40:13.228Z,16.15
2023-05-19T01:42:41.215Z,16.14
2023-05-19T01:45:10.373Z,16.13
2023-05-19T01:47:40.865Z,16.13
2023-05-19T01:50:08.659Z,16.15
2023-05-19T01:52:36.144Z,16.15
2023-05-19T01:55:03.633Z,16.14
2023-05-19T01:57:34.204Z,16.15
2023-05-19T02:00:08.371Z,16.14
2023-05-19T02:02:38.336Z,16.14
2023-05-19T02:05:10.848Z,16.14
2023-05-19T02:07:42.619Z,16.13
2023-05-19T02:10:12.480Z,16.14
2023-05-19T02:12:40.881Z,16.14
2023-05-19T02:15:12.111Z,16.12
2023-05-19T02:17:42.355Z,16.13
2023-05-19T02:20:11.839Z,16.12
2023-05-19T02:22:39.438Z,16.13
2023-05-19T02:25:07.389Z,16.13
2023-05-19T02:27:34.928Z,16.13
2023-05-19T02:30:02.395Z,16.12
2023-05-19T02:32:29.917Z,16.13
2023-05-19T02:34:57.426Z,16.12
2023-05-19T02:37:31.157Z,16.12
2023-05-19T02:39:58.746Z,16.13
2023-05-19T02:42:26.251Z,16.12
2023-05-19T02:44:55.048Z,16.13
2023-05-19T02:47:22.650Z,16.12
2023-05-19T02:49:50.182Z,16.14
2023-05-19T02:52:17.665Z,16.14
2023-05-19T02:54:46.544Z,16.15
2023-05-19T02:57:14.052Z,16.14
2023-05-19T02:59:42.814Z,16.14
2023-05-19T03:02:10.461Z,16.15
2023-05-19T03:04:42.757Z,16.15
2023-05-19T03:07:13.236Z,16.15
2023-05-19T03:09:40.854Z,16.15
2023-05-19T03:12:09.766Z,16.15
2023-05-19T03:14:38.583Z,16.15
2023-05-19T03:17:08.420Z,16.15
2023-05-19T03:19:36.060Z,16.15
2023-05-19T03:22:03.575Z,16.16
2023-05-19T03:24:31.055Z,16.17
2023-05-19T03:26:58.534Z,16.16
2023-05-19T03:29:27.420Z,16.15
2023-05-19T03:31:54.883Z,16.14
2023-05-19T03:34:22.379Z,16.15
2023-05-19T03:36:50.371Z,16.15
2023-05-19T03:39:17.946Z,16.14
2023-05-19T03:41:45.437Z,16.13
2023-05-19T03:44:12.917Z,16.13
2023-05-19T03:46:41.766Z,16.14
2023-05-19T03:49:09.290Z,16.14
2023-05-19T03:51:36.812Z,16.13
2023-05-19T03:54:04.498Z,16.13
2023-05-19T03:56:32.739Z,16.13
2023-05-19T03:59:00.406Z,16.13
2023-05-19T04:01:28.257Z,16.14
2023-05-19T04:03:57.180Z,16.13
2023-05-19T04:06:24.711Z,16.13
2023-05-19T04:08:52.217Z,16.14
2023-05-19T04:11:21.464Z,16.14
2023-05-19T04:13:48.985Z,16.14
2023-05-19T04:16:16.592Z,16.15
2023-05-19T04:18:45.525Z,16.15
2023-05-19T04:21:14.390Z,16.16
2023-05-19T04:23:41.841Z,16.16
2023-05-19T04:26:09.326Z,16.15
2023-05-19T04:28:39.958Z,16.16
2023-05-19T04:31:10.773Z,16.16
2023-05-19T04:33:38.456Z,16.16
2023-05-19T04:36:08.590Z,16.17
2023-05-19T04:38:39.894Z,16.17
2023-05-19T04:41:10.234Z,16.17
2023-05-19T04:43:41.650Z,16.17
2023-05-19T04:46:11.613Z,16.17
2023-05-19T04:48:41.060Z,16.16
2023-05-19T04:51:08.621Z,16.17
2023-05-19T04:53:37.580Z,16.17
2023-05-19T04:56:05.216Z,16.17
2023-05-19T04:58:33.240Z,16.16
2023-05-19T05:01:00.723Z,16.17
2023-05-19T05:03:28.344Z,16.16
2023-05-19T05:05:56.733Z,16.16
2023-05-19T05:08:24.219Z,16.16
2023-05-19T05:10:53.518Z,16.15
2023-05-19T05:13:23.299Z,16.14
2023-05-19T05:15:52.097Z,16.16
2023-05-19T05:18:20.031Z,16.17
2023-05-19T05:20:48.277Z,16.15
2023-05-19T05:23:16.777Z,16.15
2023-05-19T05:25:44.857Z,16.15
2023-05-19T05:28:13.733Z,16.15
2023-05-19T05:30:41.441Z,16.15
2023-05-19T05:33:09.199Z,16.15
2023-05-19T05:35:36.935Z,16.15
2023-05-19T05:38:04.496Z,16.15
2023-05-19T05:40:32.225Z,16.15
2023-05-19T05:42:59.953Z,16.15
2023-05-19T05:45:28.986Z,16.15
2023-05-19T05:47:56.950Z,16.16
2023-05-19T05:50:24.688Z,16.15
2023-05-19T05:52:54.612Z,16.15
2023-05-19T05:55:22.668Z,16.16
2023-05-19T05:57:50.579Z,16.15
2023-05-19T06:00:18.727Z,16.16
2023-05-19T06:02:48.308Z,16.16
2023-05-19T06:05:15.979Z,16.16
2023-05-19T06:07:43.555Z,16.16
2023-05-19T06:10:11.336Z,16.16
2023-05-19T06:12:40.613Z,16.16
2023-05-19T06:15:08.848Z,16.17
2023-05-19T06:17:36.505Z,16.16
2023-05-19T06:20:06.416Z,16.17
2023-05-19T06:22:33.880Z,16.17
2023-05-19T06:25:01.393Z,16.17
2023-05-19T06:27:28.923Z,16.17
2023-05-19T06:29:56.403Z,16.17
2023-05-19T06:32:23.883Z,16.16
2023-05-19T06:34:54.233Z,16.17
2023-05-19T06:37:23.859Z,16.16
2023-05-19T06:39:53.222Z,16.16
2023-05-19T06:42:22.542Z,16.16
2023-05-19T06:44:50.377Z,16.18
2023-05-19T06:47:18.038Z,16.18
2023-05-19T06:49:45.613Z,16.18
2023-05-19T06:52:13.098Z,16.18
2023-05-19T06:54:41.923Z,16.19
2023-05-19T06:57:09.431Z,16.18
2023-05-19T06:59:37.509Z,16.19
2023-05-19T07:02:05.209Z,16.20
2023-05-19T07:04:32.829Z,16.20
2023-05-19T07:07:00.397Z,16.19
2023-05-19T07:09:27.883Z,16.19
2023-05-19T07:11:57.259Z,16.20
2023-05-19T07:14:24.786Z,16.18
2023-05-19T07:16:52.394Z,16.19
2023-05-19T07:19:20.191Z,16.19
2023-05-19T07:21:47.751Z,16.18
2023-05-19T07:24:15.272Z,16.19
2023-05-19T07:29:11.752Z,16.19
2023-05-19T07:31:39.448Z,16.19
2023-05-19T07:34:07.011Z,16.19
2023-05-19T07:36:34.953Z,16.19
2023-05-19T07:39:02.477Z,16.17
2023-05-19T07:41:30.051Z,16.19
2023-05-19T07:43:57.560Z,16.19
2023-05-19T07:46:26.674Z,16.18
2023-05-19T07:48:54.228Z,16.19
2023-05-19T07:51:21.688Z,16.19
2023-05-19T07:53:49.204Z,16.19
2023-05-19T07:56:16.696Z,16.19
2023-05-19T07:58:44.160Z,16.19
2023-05-19T08:01:11.732Z,16.20
2023-05-19T08:03:40.714Z,16.20
2023-05-19T08:06:08.308Z,16.19
2023-05-19T08:08:35.825Z,16.20
2023-05-19T08:11:04.251Z,16.19
2023-05-19T08:13:31.993Z,16.19
2023-05-19T08:16:00.524Z,16.19
2023-05-19T08:18:28.120Z,16.19
2023-05-19T08:20:56.976Z,16.19
2023-05-19T08:23:24.466Z,16.18
2023-05-19T08:25:52.286Z,16.19
2023-05-19T08:28:19.781Z,16.18
2023-05-19T08:30:47.371Z,16.18
2023-05-19T08:33:14.933Z,16.17
2023-05-19T08:35:42.453Z,16.18
2023-05-19T08:38:11.623Z,16.17
2023-05-19T08:40:40.140Z,16.17
2023-05-19T08:43:07.701Z,16.18
2023-05-19T08:45:35.582Z,16.17
2023-05-19T08:48:04.082Z,16.17
2023-05-19T08:50:33.376Z,16.16
2023-05-19T08:53:05.706Z,16.16
2023-05-19T08:55:37.738Z,16.16
2023-05-19T08:58:05.843Z,16.17
2023-05-19T09:00:33.798Z,16.17
2023-05-19T09:05:34.202Z,16.16
2023-05-19T09:08:03.063Z,16.18
2023-05-19T09:10:30.734Z,16.18
2023-05-19T09:12:59.636Z,16.18
2023-05-19T09:15:27.958Z,16.18
2023-05-19T09:18:07.072Z,16.18
2023-05-19T09:20:37.579Z,16.18
2023-05-19T09:23:05.635Z,16.18
2023-05-19T09:25:33.389Z,16.19
2023-05-19T09:28:02.502Z,16.18
2023-05-19T09:30:30.038Z,16.19
2023-05-19T09:32:57.625Z,16.18
2023-05-19T09:35:25.122Z,16.18
2023-05-19T09:37:52.580Z,16.17
2023-05-19T09:40:20.126Z,16.19
2023-05-19T09:42:48.986Z,16.18
2023-05-19T09:45:17.815Z,16.17
2023-05-19T09:47:45.348Z,16.18
2023-05-19T09:50:14.152Z,16.16
2023-05-19T09:52:43.996Z,16.17
2023-05-19T09:55:12.740Z,16.17
2023-05-19T09:57:41.517Z,16.17
2023-05-19T10:00:14.342Z,16.16
2023-05-19T10:02:44.934Z,16.16
2023-05-19T10:05:13.831Z,16.17
2023-05-19T10:07:41.657Z,16.16
2023-05-19T10:10:12.569Z,16.16
2023-05-19T10:12:40.382Z,16.16
2023-05-19T10:15:10.068Z,16.15
2023-05-19T10:17:38.902Z,16.16
2023-05-19T10:20:10.964Z,16.15
2023-05-19T10:22:38.816Z,16.15
2023-05-19T10:25:07.019Z,16.15
2023-05-19T10:27:36.783Z,16.15
2023-05-19T10:30:11.568Z,16.15
2023-05-19T10:32:41.254Z,16.16
2023-05-19T10:35:34.525Z,16.14
2023-05-19T10:38:07.100Z,16.16
2023-05-19T10:40:37.981Z,16.16
2023-05-19T10:43:16.868Z,16.16
2023-05-19T10:45:47.927Z,16.17
2023-05-19T10:48:16.039Z,16.16
2023-05-19T10:50:46.823Z,16.17
2023-05-19T10:53:18.449Z,16.17
2023-05-19T10:55:47.049Z,16.17
2023-05-19T10:58:14.545Z,16.16
2023-05-19T11:00:42.504Z,16.17
2023-05-19T11:03:13.933Z,16.16
2023-05-19T11:05:41.875Z,16.17
2023-05-19T11:08:12.256Z,16.17
2023-05-19T11:10:39.988Z,16.17
2023-05-19T11:13:07.469Z,16.17
2023-05-19T11:15:38.065Z,16.16
2023-05-19T11:18:05.666Z,16.16
2023-05-19T11:20:35.047Z,16.16
2023-05-19T11:23:05.562Z,16.17
2023-05-19T11:25:43.972Z,16.16
2023-05-19T11:28:12.123Z,16.16
2023-05-19T11:30:40.799Z,16.15
2023-05-19T11:33:08.806Z,16.16
2023-05-19T11:35:36.823Z,16.17
2023-05-19T11:38:04.576Z,16.16
2023-05-19T11:40:32.092Z,16.15
2023-05-19T11:43:01.820Z,16.15
2023-05-19T11:45:30.068Z,16.16
2023-05-19T11:48:02.350Z,16.15
2023-05-19T11:50:31.700Z,16.15
2023-05-19T11:53:00.669Z,16.14
2023-05-19T11:55:28.681Z,16.15
2023-05-19T12:00:33.503Z,16.16
2023-05-19T12:03:01.091Z,16.16
2023-05-19T12:05:29.433Z,16.15
2023-05-19T12:07:57.061Z,16.16
2023-05-19T12:10:25.266Z,16.16
2023-05-19T12:12:53.339Z,16.16
2023-05-19T12:15:21.967Z,16.16
2023-05-19T12:17:57.410Z,16.16
2023-05-19T12:20:25.047Z,16.16
2023-05-19T12:22:52.889Z,16.17
2023-05-19T12:25:21.248Z,16.17
2023-05-19T12:27:49.667Z,16.17
2023-05-19T12:30:17.511Z,16.18
2023-05-19T12:32:45.121Z,16.18
2023-05-19T12:35:15.103Z,16.18
2023-05-19T12:37:43.141Z,16.18
2023-05-19T12:40:11.352Z,16.18
2023-05-19T12:42:38.839Z,16.18
2023-05-19T12:45:06.757Z,16.18
2023-05-19T12:47:35.857Z,16.16
2023-05-19T12:50:04.246Z,16.17
2023-05-19T12:52:35.531Z,16.16
2023-05-19T12:55:05.127Z,16.17
2023-05-19T12:57:35.047Z,16.16
2023-05-19T13:00:03.895Z,16.17
2023-05-19T13:02:31.477Z,16.17
2023-05-19T13:04:59.614Z,16.16
2023-05-19T13:07:27.118Z,16.17
2023-05-19T13:09:56.609Z,16.16
2023-05-19T13:12:24.594Z,16.17
2023-05-19T13:14:55.461Z,16.15
2023-05-19T13:17:23.557Z,16.17
2023-05-19T13:19:51.550Z,16.17
2023-05-19T13:22:19.137Z,16.17
2023-05-19T13:24:46.602Z,16.17
2023-05-19T13:27:15.741Z,16.17
2023-05-19T13:29:44.896Z,16.17
2023-05-19T13:32:12.355Z,16.17
2023-05-19T13:34:39.839Z,16.18
2023-05-19T13:37:10.069Z,16.19
2023-05-19T13:39:37.693Z,16.20
2023-05-19T13:42:06.281Z,16.19
2023-05-19T13:44:35.258Z,16.20
2023-05-19T13:47:02.771Z,16.21
2023-05-19T13:49:30.381Z,16.22
2023-05-19T13:51:58.204Z,16.22
2023-05-19T13:54:25.689Z,16.23
2023-05-19T13:56:53.228Z,16.22
2023-05-19T13:59:21.472Z,16.23
2023-05-19T14:01:50.450Z,16.23
2023-05-19T14:04:18.786Z,16.23
2023-05-19T14:06:46.307Z,16.24
2023-05-19T14:09:13.789Z,16.24
2023-05-19T14:11:41.298Z,16.24
2023-05-19T14:14:11.128Z,16.24
2023-05-19T14:16:38.988Z,16.24
2023-05-19T14:19:07.882Z,16.25
2023-05-19T14:21:36.449Z,16.24
2023-05-19T14:24:03.980Z,16.24
2023-05-19T14:26:31.496Z,16.23
2023-05-19T14:28:59.202Z,16.23
2023-05-19T14:31:26.747Z,16.24
2023-05-19T14:33:54.840Z,16.23
2023-05-19T14:36:23.629Z,16.23
2023-05-19T14:38:51.121Z,16.23
2023-05-19T14:41:18.613Z,16.23
2023-05-19T14:43:47.075Z,16.23
2023-05-19T14:46:16.287Z,16.23
2023-05-19T14:48:43.810Z,16.23
2023-05-19T14:51:11.350Z,16.23
2023-05-19T14:53:40.186Z,16.24
2023-05-19T14:56:08.362Z,16.24
2023-05-19T14:58:35.941Z,16.22
2023-05-19T15:01:03.611Z,16.23
2023-05-19T15:03:31.180Z,16.22
2023-05-19T15:05:58.703Z,16.22
2023-05-19T15:08:26.250Z,16.23
2023-05-19T15:10:55.098Z,16.23
2023-05-19T15:13:22.595Z,16.22
2023-05-19T15:15:50.098Z,16.23
2023-05-19T15:18:18.688Z,16.23
2023-05-19T15:20:46.691Z,16.24
2023-05-19T15:23:14.185Z,16.24
2023-05-19T15:25:41.756Z,16.23
2023-05-19T15:28:10.599Z,16.24
2023-05-19T15:30:38.377Z,16.24
2023-05-19T15:33:06.143Z,16.25
2023-05-19T15:35:33.633Z,16.25
2023-05-19T15:38:06.047Z,16.25
2023-05-19T15:40:33.937Z,16.24
2023-05-19T15:43:01.890Z,16.24
2023-05-19T15:45:30.866Z,16.25
2023-05-19T15:47:58.385Z,16.25
2023-05-19T15:50:26.717Z,16.25
2023-05-19T15:52:54.241Z,16.25
2023-05-19T15:55:21.949Z,16.24
2023-05-19T15:57:49.582Z,16.25
2023-05-19T16:00:17.200Z,16.25
2023-05-19T16:02:46.137Z,16.24
2023-05-19T16:05:13.695Z,16.26
2023-05-19T16:07:42.162Z,16.24
2023-05-19T16:10:10.064Z,16.23
2023-05-19T16:12:37.549Z,16.24
2023-05-19T16:15:05.393Z,16.24
2023-05-19T16:17:32.995Z,16.24
2023-05-19T16:20:01.851Z,16.22
2023-05-19T16:22:30.544Z,16.23
2023-05-19T16:24:58.056Z,16.23
2023-05-19T16:27:25.530Z,16.25
2023-05-19T16:29:53.178Z,16.24
2023-05-19T16:32:21.008Z,16.24
2023-05-19T16:34:48.510Z,16.25
2023-05-19T16:37:17.356Z,16.26
2023-05-19T16:39:48.185Z,16.25
2023-05-19T16:42:15.730Z,16.25
2023-05-19T16:44:43.455Z,16.24
2023-05-19T16:47:10.920Z,16.25
2023-05-19T16:49:40.368Z,16.24
2023-05-19T16:52:07.906Z,16.24
2023-05-19T16:54:36.831Z,16.25
2023-05-19T16:57:04.508Z,16.24
2023-05-19T16:59:32.024Z,16.23
2023-05-19T17:01:59.595Z,16.25
2023-05-19T17:04:28.709Z,16.26
2023-05-19T17:06:58.123Z,16.26
2023-05-19T17:09:26.337Z,16.26
2023-05-19T17:11:55.243Z,16.27
2023-05-19T17:14:23.015Z,16.27
2023-05-19T17:16:52.393Z,16.40
2023-05-19T17:19:20.063Z,16.57
2023-05-19T17:21:47.614Z,16.75
2023-05-19T17:24:15.070Z,16.71
2023-05-19T17:26:42.584Z,16.65
2023-05-19T17:29:11.412Z,16.58
2023-05-19T17:31:38.875Z,16.51
2023-05-19T17:34:06.388Z,16.46
2023-05-19T17:36:33.843Z,16.42
2023-05-19T17:39:01.333Z,16.39
2023-05-19T17:41:28.869Z,16.37
2023-05-19T17:43:56.362Z,16.34
2023-05-19T17:46:25.280Z,16.32
2023-05-19T17:48:52.793Z,16.31
2023-05-19T17:51:21.124Z,16.31
2023-05-19T17:53:48.916Z,16.30
2023-05-19T17:56:16.471Z,16.29
2023-05-19T17:58:46.549Z,16.30
2023-05-19T18:01:14.903Z,16.28
2023-05-19T18:03:49.391Z,16.27
2023-05-19T18:06:17.505Z,16.28
2023-05-19T18:08:46.964Z,16.27
2023-05-19T18:11:16.131Z,16.28
2023-05-19T18:13:43.668Z,16.29
2023-05-19T18:16:11.206Z,16.27
2023-05-19T18:18:41.151Z,16.27
2023-05-19T18:21:14.136Z,16.27
2023-05-19T18:23:42.214Z,16.26
2023-05-19T18:26:09.662Z,16.27
2023-05-19T18:28:37.148Z,16.27
2023-05-19T18:31:05.424Z,16.27
2023-05-19T18:33:32.984Z,16.26
2023-05-19T18:36:00.623Z,16.27
2023-05-19T18:38:29.479Z,16.27
2023-05-19T18:40:57.694Z,16.27
2023-05-19T18:43:25.257Z,16.27
2023-05-19T18:45:52.787Z,16.27
2023-05-19T18:48:21.561Z,16.28
2023-05-19T18:50:49.147Z,16.28
2023-05-19T18:53:16.685Z,16.28
2023-05-19T18:55:45.599Z,16.29
2023-05-19T18:58:13.068Z,16.28
2023-05-19T19:00:40.658Z,16.28
2023-05-19T19:03:10.284Z,16.28
2023-05-19T19:05:38.020Z,16.27
2023-05-19T19:08:06.138Z,16.27
2023-05-19T19:10:37.233Z,16.27
2023-05-19T19:13:06.261Z,16.28
2023-05-19T19:15:33.744Z,16.54
2023-05-19T19:18:01.352Z,16.55
2023-05-19T19:20:28.907Z,16.50
2023-05-19T19:22:56.851Z,16.46
2023-05-19T19:25:24.348Z,16.44
2023-05-19T19:27:51.910Z,16.41
2023-05-19T19:30:20.842Z,16.38
2023-05-19T19:32:48.314Z,16.35
2023-05-19T19:35:15.954Z,16.35
2023-05-19T19:37:43.460Z,16.33
2023-05-19T19:40:11.465Z,16.32
2023-05-19T19:42:39.491Z,16.32
2023-05-19T19:45:07.742Z,16.31
2023-05-19T19:47:36.609Z,16.31
2023-05-19T19:50:05.695Z,16.32
2023-05-19T19:52:33.245Z,16.33
2023-05-19T19:55:00.727Z,16.36
2023-05-19T19:57:29.155Z,16.37
2023-05-19T19:59:59.122Z,16.40
2023-05-19T20:02:26.830Z,16.42
2023-05-19T20:04:56.010Z,16.44
2023-05-19T20:07:23.540Z,16.43
2023-05-19T20:09:51.672Z,16.45
2023-05-19T20:12:19.204Z,16.46
2023-05-19T20:14:47.582Z,16.47
2023-05-19T20:17:15.092Z,16.48
2023-05-19T20:19:42.605Z,16.49
2023-05-19T20:22:11.497Z,16.50
2023-05-19T20:24:39.105Z,16.51
2023-05-19T20:27:07.345Z,16.52
2023-05-19T20:29:34.929Z,16.54
2023-05-19T20:32:02.403Z,16.55
2023-05-19T20:34:29.895Z,16.55
2023-05-19T20:36:57.445Z,16.57
2023-05-19T20:39:26.282Z,16.57
2023-05-19T20:41:53.781Z,16.58
2023-05-19T20:44:21.618Z,16.58
2023-05-19T20:46:49.098Z,16.57
2023-05-19T20:49:16.602Z,16.57
2023-05-19T20:51:44.082Z,16.58
2023-05-19T20:54:11.589Z,16.59
2023-05-19T20:56:40.445Z,16.59
2023-05-19T20:59:07.953Z,16.59
2023-05-19T21:01:35.463Z,16.59
2023-05-19T21:04:06.715Z,16.60
2023-05-19T21:06:34.364Z,16.60
2023-05-19T21:09:04.905Z,16.61
2023-05-19T21:11:32.389Z,16.61
2023-05-19T21:14:03.896Z,16.61
2023-05-19T21:16:31.918Z,16.62
2023-05-19T21:18:59.480Z,16.62
2023-05-19T21:21:27.229Z,16.62
2023-05-19T21:23:54.701Z,16.62
2023-05-19T21:26:22.307Z,16.61
2023-05-19T21:28:49.810Z,16.63
2023-05-19T21:31:18.702Z,16.63
2023-05-19T21:33:46.211Z,16.64
2023-05-19T21:36:13.765Z,16.65
2023-05-19T21:38:41.229Z,16.66
2023-05-19T21:41:08.708Z,16.66
2023-05-19T21:43:36.197Z,16.67
2023-05-19T21:46:03.692Z,16.69
2023-05-19T21:48:32.590Z,16.70
2023-05-19T21:51:00.115Z,16.70
2023-05-19T21:53:27.752Z,16.69
2023-05-19T21:55:55.240Z,16.70
2023-05-19T21:58:22.762Z,16.70
2023-05-19T22:00:50.777Z,16.69
2023-05-19T22:03:18.535Z,16.67
2023-05-19T22:05:50.775Z,16.66
2023-05-19T22:08:18.845Z,16.65
2023-05-19T22:10:46.762Z,16.63
2023-05-19T22:13:14.210Z,16.62
2023-05-19T22:15:41.802Z,16.60
2023-05-19T22:18:09.470Z,16.61
2023-05-19T22:20:37.632Z,16.65
2023-05-19T22:23:06.459Z,16.64
2023-05-19T22:25:33.941Z,16.62
2023-05-19T22:28:02.205Z,16.60
2023-05-19T22:30:29.713Z,16.59
2023-05-19T22:32:57.302Z,16.68
2023-05-19T22:35:24.955Z,16.65
2023-05-19T22:37:52.833Z,16.63
2023-05-19T22:40:21.723Z,16.62
2023-05-19T22:42:49.228Z,16.61
2023-05-19T22:45:16.724Z,16.58
2023-05-19T22:47:44.306Z,16.56
2023-05-19T22:50:12.252Z,16.54
2023-05-19T22:52:39.751Z,16.54
2023-05-19T22:55:07.782Z,16.51
2023-05-19T22:57:36.617Z,16.50
2023-05-19T23:00:04.236Z,16.49
2023-05-19T23:02:31.756Z,16.49
2023-05-19T23:04:59.338Z,16.49
2023-05-19T23:07:26.858Z,16.49
2023-05-19T23:09:54.430Z,16.49
2023-05-19T23:12:21.912Z,16.48
2023-05-19T23:14:50.965Z,16.48
2023-05-19T23:17:18.434Z,16.48
2023-05-19T23:19:45.990Z,16.48
2023-05-19T23:22:13.520Z,16.48
2023-05-19T23:24:41.221Z,16.47
2023-05-19T23:27:08.745Z,16.47
2023-05-19T23:29:36.303Z,16.47
2023-05-19T23:32:05.383Z,16.46
2023-05-19T23:34:32.871Z,16.46
2023-05-19T23:37:00.327Z,16.46
2023-05-19T23:39:27.791Z,16.45
2023-05-19T23:41:55.281Z,16.45
2023-05-19T23:44:22.812Z,16.43
2023-05-19T23:46:50.417Z,16.42
2023-05-19T23:49:19.725Z,16.41
2023-05-19T23:51:47.226Z,16.41
2023-05-19T23:54:14.731Z,16.40
2023-05-19T23:56:42.187Z,16.40
2023-05-19T23:59:09.679Z,16.39
